sensor_id;sensor_type;location;lat;lon;timestamp;P1;durP1;ratioP1;P2;durP2;ratioP2
56321;SDS011;42227;6.376;-10.782;2022-07-04T00:00:46;9.52;;;6.32;;
56321;SDS011;42227;6.376;-10.782;2022-07-04T00:03:14;13.15;;;7.30;;
56321;SDS011;42227;6.376;-10.782;2022-07-04T00:05:42;14.50;;;7.88;;
56321;SDS011;42227;6.376;-10.782;2022-07-04T00:08:10;11.93;;;7.22;;
56321;SDS011;42227;6.376;-10.782;2022-07-04T00:10:38;12.05;;;7.10;;
56321;SDS011;42227;6.376;-10.782;2022-07-04T00:13:07;19.13;;;7.90;;
56321;SDS011;42227;6.376;-10.782;2022-07-04T00:15:35;13.85;;;5.93;;
56321;SDS011;42227;6.376;-10.782;2022-07-04T00:18:03;18.73;;;6.88;;
56321;SDS011;42227;6.376;-10.782;2022-07-04T00:20:32;8.40;;;5.13;;
56321;SDS011;42227;6.376;-10.782;2022-07-04T00:23:00;9.40;;;6.28;;
56321;SDS011;42227;6.376;-10.782;2022-07-04T00:25:29;12.10;;;7.68;;
56321;SDS011;42227;6.376;-10.782;2022-07-04T00:27:57;11.45;;;7.18;;
56321;SDS011;42227;6.376;-10.782;2022-07-04T00:30:25;15.68;;;7.40;;
56321;SDS011;42227;6.376;-10.782;2022-07-04T00:32:53;13.07;;;6.15;;
56321;SDS011;42227;6.376;-10.782;2022-07-04T00:35:22;14.43;;;6.70;;
56321;SDS011;42227;6.376;-10.782;2022-07-04T00:37:50;21.65;;;7.22;;
56321;SDS011;42227;6.376;-10.782;2022-07-04T00:40:18;15.73;;;6.38;;
56321;SDS011;42227;6.376;-10.782;2022-07-04T00:42:46;22.77;;;6.93;;
56321;SDS011;42227;6.376;-10.782;2022-07-04T00:45:15;13.60;;;6.68;;
56321;SDS011;42227;6.376;-10.782;2022-07-04T00:47:43;14.02;;;6.88;;
56321;SDS011;42227;6.376;-10.782;2022-07-04T00:50:11;11.02;;;6.78;;
56321;SDS011;42227;6.376;-10.782;2022-07-04T00:52:39;10.20;;;6.07;;
56321;SDS011;42227;6.376;-10.782;2022-07-04T00:55:08;14.27;;;6.35;;
56321;SDS011;42227;6.376;-10.782;2022-07-04T00:57:37;11.45;;;6.57;;
56321;SDS011;42227;6.376;-10.782;2022-07-04T01:00:07;11.35;;;6.50;;
56321;SDS011;42227;6.376;-10.782;2022-07-04T01:02:35;11.32;;;6.13;;
56321;SDS011;42227;6.376;-10.782;2022-07-04T01:05:04;10.63;;;5.40;;
56321;SDS011;42227;6.376;-10.782;2022-07-04T01:07:33;11.40;;;6.22;;
56321;SDS011;42227;6.376;-10.782;2022-07-04T01:10:02;19.50;;;8.32;;
56321;SDS011;42227;6.376;-10.782;2022-07-04T01:12:30;13.98;;;6.72;;
56321;SDS011;42227;6.376;-10.782;2022-07-04T01:14:59;19.23;;;8.25;;
56321;SDS011;42227;6.376;-10.782;2022-07-04T01:17:27;13.15;;;6.43;;
56321;SDS011;42227;6.376;-10.782;2022-07-04T01:19:55;16.13;;;7.18;;
56321;SDS011;42227;6.376;-10.782;2022-07-04T01:22:24;12.20;;;6.63;;
56321;SDS011;42227;6.376;-10.782;2022-07-04T01:24:52;16.45;;;7.25;;
56321;SDS011;42227;6.376;-10.782;2022-07-04T01:27:20;14.57;;;7.20;;
56321;SDS011;42227;6.376;-10.782;2022-07-04T01:29:49;13.40;;;6.75;;
56321;SDS011;42227;6.376;-10.782;2022-07-04T01:32:17;11.40;;;7.57;;
56321;SDS011;42227;6.376;-10.782;2022-07-04T01:34:46;19.08;;;7.80;;
56321;SDS011;42227;6.376;-10.782;2022-07-04T01:37:14;14.55;;;7.22;;
56321;SDS011;42227;6.376;-10.782;2022-07-04T01:39:43;17.20;;;6.68;;
56321;SDS011;42227;6.376;-10.782;2022-07-04T01:42:11;21.65;;;6.40;;
56321;SDS011;42227;6.376;-10.782;2022-07-04T01:44:39;16.60;;;5.95;;
56321;SDS011;42227;6.376;-10.782;2022-07-04T01:47:08;14.52;;;5.90;;
56321;SDS011;42227;6.376;-10.782;2022-07-04T01:49:36;14.20;;;7.05;;
56321;SDS011;42227;6.376;-10.782;2022-07-04T01:52:04;11.90;;;6.50;;
56321;SDS011;42227;6.376;-10.782;2022-07-04T01:54:33;17.33;;;5.57;;
56321;SDS011;42227;6.376;-10.782;2022-07-04T01:57:01;14.07;;;6.03;;
56321;SDS011;42227;6.376;-10.782;2022-07-04T01:59:29;12.15;;;6.78;;
56321;SDS011;42227;6.376;-10.782;2022-07-04T02:01:58;19.77;;;7.57;;
56321;SDS011;42227;6.376;-10.782;2022-07-04T02:04:26;16.33;;;6.32;;
56321;SDS011;42227;6.376;-10.782;2022-07-04T02:06:54;13.60;;;6.85;;
56321;SDS011;42227;6.376;-10.782;2022-07-04T02:09:23;14.10;;;6.85;;
56321;SDS011;42227;6.376;-10.782;2022-07-04T02:11:51;13.07;;;6.97;;
56321;SDS011;42227;6.376;-10.782;2022-07-04T02:14:19;12.68;;;6.05;;
56321;SDS011;42227;6.376;-10.782;2022-07-04T02:16:48;18.83;;;6.78;;
56321;SDS011;42227;6.376;-10.782;2022-07-04T02:19:17;14.95;;;5.53;;
56321;SDS011;42227;6.376;-10.782;2022-07-04T02:21:45;11.55;;;5.45;;
56321;SDS011;42227;6.376;-10.782;2022-07-04T02:24:13;9.57;;;5.75;;
56321;SDS011;42227;6.376;-10.782;2022-07-04T02:26:42;15.02;;;6.03;;
56321;SDS011;42227;6.376;-10.782;2022-07-04T02:29:10;8.88;;;4.55;;
56321;SDS011;42227;6.376;-10.782;2022-07-04T02:31:38;13.25;;;6.45;;
56321;SDS011;42227;6.376;-10.782;2022-07-04T02:34:07;13.77;;;5.70;;
56321;SDS011;42227;6.376;-10.782;2022-07-04T02:36:35;14.88;;;5.40;;
56321;SDS011;42227;6.376;-10.782;2022-07-04T02:39:04;13.88;;;6.57;;
56321;SDS011;42227;6.376;-10.782;2022-07-04T02:41:33;13.48;;;5.70;;
56321;SDS011;42227;6.376;-10.782;2022-07-04T02:44:01;13.60;;;6.38;;
56321;SDS011;42227;6.376;-10.782;2022-07-04T02:46:30;17.85;;;7.53;;
56321;SDS011;42227;6.376;-10.782;2022-07-04T02:48:58;14.48;;;7.10;;
56321;SDS011;42227;6.376;-10.782;2022-07-04T02:51:27;9.90;;;5.85;;
56321;SDS011;42227;6.376;-10.782;2022-07-04T02:53:56;13.02;;;6.63;;
56321;SDS011;42227;6.376;-10.782;2022-07-04T02:56:24;12.52;;;5.47;;
56321;SDS011;42227;6.376;-10.782;2022-07-04T02:58:53;13.65;;;5.30;;
56321;SDS011;42227;6.376;-10.782;2022-07-04T03:01:21;13.82;;;6.13;;
56321;SDS011;42227;6.376;-10.782;2022-07-04T03:03:49;12.00;;;6.38;;
56321;SDS011;42227;6.376;-10.782;2022-07-04T03:06:18;13.65;;;6.18;;
56321;SDS011;42227;6.376;-10.782;2022-07-04T03:08:46;19.10;;;5.53;;
56321;SDS011;42227;6.376;-10.782;2022-07-04T03:11:14;10.63;;;5.00;;
56321;SDS011;42227;6.376;-10.782;2022-07-04T03:13:42;11.52;;;5.93;;
56321;SDS011;42227;6.376;-10.782;2022-07-04T03:16:11;16.55;;;5.85;;
56321;SDS011;42227;6.376;-10.782;2022-07-04T03:18:39;20.27;;;6.85;;
56321;SDS011;42227;6.376;-10.782;2022-07-04T03:21:07;12.88;;;5.85;;
56321;SDS011;42227;6.376;-10.782;2022-07-04T03:23:38;10.20;;;6.90;;
56321;SDS011;42227;6.376;-10.782;2022-07-04T03:26:07;18.30;;;6.97;;
56321;SDS011;42227;6.376;-10.782;2022-07-04T03:28:35;16.70;;;5.60;;
56321;SDS011;42227;6.376;-10.782;2022-07-04T03:31:03;10.20;;;5.47;;
56321;SDS011;42227;6.376;-10.782;2022-07-04T03:33:31;12.15;;;5.53;;
56321;SDS011;42227;6.376;-10.782;2022-07-04T03:36:00;9.98;;;5.15;;
56321;SDS011;42227;6.376;-10.782;2022-07-04T03:38:28;13.98;;;5.85;;
56321;SDS011;42227;6.376;-10.782;2022-07-04T03:40:56;15.98;;;5.65;;
56321;SDS011;42227;6.376;-10.782;2022-07-04T03:43:24;7.70;;;5.78;;
56321;SDS011;42227;6.376;-10.782;2022-07-04T03:45:52;15.45;;;6.63;;
56321;SDS011;42227;6.376;-10.782;2022-07-04T03:48:21;11.65;;;6.88;;
56321;SDS011;42227;6.376;-10.782;2022-07-04T03:50:49;15.05;;;7.38;;
56321;SDS011;42227;6.376;-10.782;2022-07-04T03:53:17;18.70;;;7.25;;
56321;SDS011;42227;6.376;-10.782;2022-07-04T03:55:46;13.43;;;6.38;;
56321;SDS011;42227;6.376;-10.782;2022-07-04T03:58:14;14.50;;;7.35;;
56321;SDS011;42227;6.376;-10.782;2022-07-04T04:00:42;11.05;;;7.05;;
56321;SDS011;42227;6.376;-10.782;2022-07-04T04:03:11;8.40;;;5.72;;
56321;SDS011;42227;6.376;-10.782;2022-07-04T04:05:40;12.05;;;6.20;;
56321;SDS011;42227;6.376;-10.782;2022-07-04T04:08:08;11.88;;;7.07;;
56321;SDS011;42227;6.376;-10.782;2022-07-04T04:10:36;12.30;;;5.97;;
56321;SDS011;42227;6.376;-10.782;2022-07-04T04:13:04;9.52;;;5.82;;
56321;SDS011;42227;6.376;-10.782;2022-07-04T04:15:32;14.98;;;6.85;;
56321;SDS011;42227;6.376;-10.782;2022-07-04T04:18:01;11.40;;;6.00;;
56321;SDS011;42227;6.376;-10.782;2022-07-04T04:20:29;15.20;;;6.82;;
56321;SDS011;42227;6.376;-10.782;2022-07-04T04:22:57;12.43;;;5.57;;
56321;SDS011;42227;6.376;-10.782;2022-07-04T04:25:25;14.05;;;6.80;;
56321;SDS011;42227;6.376;-10.782;2022-07-04T04:27:54;16.35;;;6.43;;
56321;SDS011;42227;6.376;-10.782;2022-07-04T04:30:22;11.18;;;5.82;;
56321;SDS011;42227;6.376;-10.782;2022-07-04T04:32:50;11.48;;;5.85;;
56321;SDS011;42227;6.376;-10.782;2022-07-04T04:35:18;15.32;;;6.63;;
56321;SDS011;42227;6.376;-10.782;2022-07-04T04:37:46;9.77;;;5.55;;
56321;SDS011;42227;6.376;-10.782;2022-07-04T04:40:14;19.45;;;6.65;;
56321;SDS011;42227;6.376;-10.782;2022-07-04T04:42:43;15.20;;;5.75;;
56321;SDS011;42227;6.376;-10.782;2022-07-04T04:45:11;18.80;;;6.32;;
56321;SDS011;42227;6.376;-10.782;2022-07-04T04:47:39;11.82;;;5.95;;
56321;SDS011;42227;6.376;-10.782;2022-07-04T04:50:08;16.30;;;6.55;;
56321;SDS011;42227;6.376;-10.782;2022-07-04T04:52:37;14.10;;;7.18;;
56321;SDS011;42227;6.376;-10.782;2022-07-04T04:55:05;17.08;;;6.90;;
56321;SDS011;42227;6.376;-10.782;2022-07-04T04:57:34;17.55;;;7.68;;
56321;SDS011;42227;6.376;-10.782;2022-07-04T05:00:03;16.70;;;7.80;;
56321;SDS011;42227;6.376;-10.782;2022-07-04T05:02:32;16.67;;;7.05;;
56321;SDS011;42227;6.376;-10.782;2022-07-04T05:05:00;15.25;;;6.05;;
56321;SDS011;42227;6.376;-10.782;2022-07-04T05:07:28;24.85;;;7.15;;
56321;SDS011;42227;6.376;-10.782;2022-07-04T05:09:56;15.43;;;7.22;;
56321;SDS011;42227;6.376;-10.782;2022-07-04T05:12:25;12.45;;;7.55;;
56321;SDS011;42227;6.376;-10.782;2022-07-04T05:14:54;13.63;;;6.78;;
56321;SDS011;42227;6.376;-10.782;2022-07-04T05:17:23;11.00;;;5.85;;
56321;SDS011;42227;6.376;-10.782;2022-07-04T05:19:51;21.58;;;10.68;;
56321;SDS011;42227;6.376;-10.782;2022-07-04T05:22:19;21.92;;;10.73;;
56321;SDS011;42227;6.376;-10.782;2022-07-04T05:24:48;22.40;;;8.80;;
56321;SDS011;42227;6.376;-10.782;2022-07-04T05:27:16;15.50;;;10.85;;
56321;SDS011;42227;6.376;-10.782;2022-07-04T05:29:44;15.65;;;10.52;;
56321;SDS011;42227;6.376;-10.782;2022-07-04T05:32:16;18.75;;;11.07;;
56321;SDS011;42227;6.376;-10.782;2022-07-04T05:34:44;22.38;;;11.82;;
56321;SDS011;42227;6.376;-10.782;2022-07-04T05:37:13;14.65;;;10.32;;
56321;SDS011;42227;6.376;-10.782;2022-07-04T05:39:41;15.70;;;10.88;;
56321;SDS011;42227;6.376;-10.782;2022-07-04T05:42:09;15.93;;;10.48;;
56321;SDS011;42227;6.376;-10.782;2022-07-04T05:44:37;24.80;;;11.52;;
56321;SDS011;42227;6.376;-10.782;2022-07-04T05:47:06;17.13;;;9.80;;
56321;SDS011;42227;6.376;-10.782;2022-07-04T05:49:34;17.63;;;11.95;;
56321;SDS011;42227;6.376;-10.782;2022-07-04T05:52:03;17.13;;;10.55;;
56321;SDS011;42227;6.376;-10.782;2022-07-04T05:54:31;17.60;;;11.27;;
56321;SDS011;42227;6.376;-10.782;2022-07-04T05:57:00;18.48;;;10.57;;
56321;SDS011;42227;6.376;-10.782;2022-07-04T05:59:28;18.15;;;10.23;;
56321;SDS011;42227;6.376;-10.782;2022-07-04T06:01:56;17.20;;;10.05;;
56321;SDS011;42227;6.376;-10.782;2022-07-04T06:04:25;13.15;;;9.45;;
56321;SDS011;42227;6.376;-10.782;2022-07-04T06:06:53;19.17;;;9.35;;
56321;SDS011;42227;6.376;-10.782;2022-07-04T06:09:21;16.92;;;10.35;;
56321;SDS011;42227;6.376;-10.782;2022-07-04T06:11:49;16.58;;;8.45;;
56321;SDS011;42227;6.376;-10.782;2022-07-04T06:14:17;21.60;;;8.02;;
56321;SDS011;42227;6.376;-10.782;2022-07-04T06:16:46;12.63;;;6.65;;
56321;SDS011;42227;6.376;-10.782;2022-07-04T06:19:14;12.52;;;6.70;;
56321;SDS011;42227;6.376;-10.782;2022-07-04T06:21:42;15.35;;;7.65;;
56321;SDS011;42227;6.376;-10.782;2022-07-04T06:24:11;16.65;;;7.85;;
56321;SDS011;42227;6.376;-10.782;2022-07-04T06:26:39;17.05;;;8.00;;
56321;SDS011;42227;6.376;-10.782;2022-07-04T06:29:07;12.60;;;7.22;;
56321;SDS011;42227;6.376;-10.782;2022-07-04T06:31:35;17.15;;;7.20;;
56321;SDS011;42227;6.376;-10.782;2022-07-04T06:34:04;16.98;;;6.70;;
56321;SDS011;42227;6.376;-10.782;2022-07-04T06:36:32;14.25;;;7.82;;
56321;SDS011;42227;6.376;-10.782;2022-07-04T06:39:00;19.50;;;7.70;;
56321;SDS011;42227;6.376;-10.782;2022-07-04T06:41:29;10.43;;;6.90;;
56321;SDS011;42227;6.376;-10.782;2022-07-04T06:43:57;10.27;;;6.85;;
56321;SDS011;42227;6.376;-10.782;2022-07-04T06:46:25;10.85;;;7.07;;
56321;SDS011;42227;6.376;-10.782;2022-07-04T06:48:54;17.70;;;8.52;;
56321;SDS011;42227;6.376;-10.782;2022-07-04T06:51:22;12.00;;;7.50;;
56321;SDS011;42227;6.376;-10.782;2022-07-04T06:53:51;18.02;;;8.68;;
56321;SDS011;42227;6.376;-10.782;2022-07-04T06:56:19;13.68;;;7.80;;
56321;SDS011;42227;6.376;-10.782;2022-07-04T06:58:47;23.02;;;7.60;;
56321;SDS011;42227;6.376;-10.782;2022-07-04T07:01:16;14.77;;;7.80;;
56321;SDS011;42227;6.376;-10.782;2022-07-04T07:03:44;16.67;;;8.20;;
56321;SDS011;42227;6.376;-10.782;2022-07-04T07:06:12;15.00;;;9.50;;
56321;SDS011;42227;6.376;-10.782;2022-07-04T07:08:41;10.90;;;6.57;;
56321;SDS011;42227;6.376;-10.782;2022-07-04T07:11:09;19.50;;;8.68;;
56321;SDS011;42227;6.376;-10.782;2022-07-04T07:13:39;18.85;;;9.02;;
56321;SDS011;42227;6.376;-10.782;2022-07-04T07:16:08;12.73;;;7.07;;
56321;SDS011;42227;6.376;-10.782;2022-07-04T07:18:37;19.25;;;8.48;;
56321;SDS011;42227;6.376;-10.782;2022-07-04T07:21:05;12.75;;;7.35;;
56321;SDS011;42227;6.376;-10.782;2022-07-04T07:23:37;13.10;;;7.07;;
56321;SDS011;42227;6.376;-10.782;2022-07-04T07:28:34;26.45;;;7.72;;
56321;SDS011;42227;6.376;-10.782;2022-07-04T07:31:02;11.20;;;6.70;;
56321;SDS011;42227;6.376;-10.782;2022-07-04T07:33:31;12.90;;;7.38;;
56321;SDS011;42227;6.376;-10.782;2022-07-04T07:35:59;10.07;;;6.15;;
56321;SDS011;42227;6.376;-10.782;2022-07-04T07:38:27;14.50;;;7.78;;
56321;SDS011;42227;6.376;-10.782;2022-07-04T07:40:55;17.05;;;6.13;;
56321;SDS011;42227;6.376;-10.782;2022-07-04T07:43:24;11.25;;;6.00;;
56321;SDS011;42227;6.376;-10.782;2022-07-04T07:45:52;12.02;;;6.30;;
56321;SDS011;42227;6.376;-10.782;2022-07-04T07:48:20;12.63;;;6.35;;
56321;SDS011;42227;6.376;-10.782;2022-07-04T07:50:48;16.73;;;7.60;;
56321;SDS011;42227;6.376;-10.782;2022-07-04T07:53:17;10.88;;;6.63;;
56321;SDS011;42227;6.376;-10.782;2022-07-04T07:55:45;17.65;;;7.80;;
56321;SDS011;42227;6.376;-10.782;2022-07-04T07:58:13;15.00;;;6.90;;
56321;SDS011;42227;6.376;-10.782;2022-07-04T08:00:42;18.00;;;6.72;;
56321;SDS011;42227;6.376;-10.782;2022-07-04T08:03:25;12.98;;;5.97;;
56321;SDS011;42227;6.376;-10.782;2022-07-04T08:05:53;15.95;;;7.65;;
56321;SDS011;42227;6.376;-10.782;2022-07-04T08:08:22;10.77;;;6.50;;
56321;SDS011;42227;6.376;-10.782;2022-07-04T08:10:50;14.32;;;6.60;;
56321;SDS011;42227;6.376;-10.782;2022-07-04T08:13:18;10.45;;;6.40;;
56321;SDS011;42227;6.376;-10.782;2022-07-04T08:15:49;10.20;;;6.35;;
56321;SDS011;42227;6.376;-10.782;2022-07-04T08:18:17;13.40;;;6.63;;
56321;SDS011;42227;6.376;-10.782;2022-07-04T08:20:45;14.40;;;7.57;;
56321;SDS011;42227;6.376;-10.782;2022-07-04T08:23:29;11.32;;;6.90;;
56321;SDS011;42227;6.376;-10.782;2022-07-04T08:25:59;12.23;;;7.63;;
56321;SDS011;42227;6.376;-10.782;2022-07-04T08:28:28;13.93;;;7.32;;
56321;SDS011;42227;6.376;-10.782;2022-07-04T08:30:57;14.77;;;8.05;;
56321;SDS011;42227;6.376;-10.782;2022-07-04T08:33:26;16.42;;;7.90;;
56321;SDS011;42227;6.376;-10.782;2022-07-04T08:36:01;21.20;;;6.75;;
56321;SDS011;42227;6.376;-10.782;2022-07-04T08:38:30;12.90;;;7.18;;
56321;SDS011;42227;6.376;-10.782;2022-07-04T08:40:59;10.05;;;5.45;;
56321;SDS011;42227;6.376;-10.782;2022-07-04T08:43:31;12.05;;;5.93;;
56321;SDS011;42227;6.376;-10.782;2022-07-04T08:45:59;10.95;;;6.07;;
56321;SDS011;42227;6.376;-10.782;2022-07-04T08:48:50;20.02;;;7.93;;
56321;SDS011;42227;6.376;-10.782;2022-07-04T08:54:01;10.70;;;5.47;;
56321;SDS011;42227;6.376;-10.782;2022-07-04T08:56:33;12.02;;;7.63;;
56321;SDS011;42227;6.376;-10.782;2022-07-04T08:59:01;16.48;;;6.68;;
56321;SDS011;42227;6.376;-10.782;2022-07-04T09:01:30;12.82;;;6.18;;
56321;SDS011;42227;6.376;-10.782;2022-07-04T09:03:59;15.82;;;7.65;;
56321;SDS011;42227;6.376;-10.782;2022-07-04T09:06:28;14.63;;;6.85;;
56321;SDS011;42227;6.376;-10.782;2022-07-04T09:08:58;22.33;;;7.53;;
56321;SDS011;42227;6.376;-10.782;2022-07-04T09:11:27;16.38;;;6.38;;
56321;SDS011;42227;6.376;-10.782;2022-07-04T09:13:56;13.20;;;6.57;;
56321;SDS011;42227;6.376;-10.782;2022-07-04T09:16:25;14.48;;;7.93;;
56321;SDS011;42227;6.376;-10.782;2022-07-04T09:18:53;12.68;;;7.90;;
56321;SDS011;42227;6.376;-10.782;2022-07-04T09:21:22;10.07;;;6.00;;
56321;SDS011;42227;6.376;-10.782;2022-07-04T09:24:09;12.73;;;6.63;;
56321;SDS011;42227;6.376;-10.782;2022-07-04T09:26:44;9.95;;;5.53;;
56321;SDS011;42227;6.376;-10.782;2022-07-04T09:29:13;13.52;;;5.13;;
56321;SDS011;42227;6.376;-10.782;2022-07-04T09:31:42;10.82;;;5.85;;
56321;SDS011;42227;6.376;-10.782;2022-07-04T09:34:10;10.13;;;5.40;;
56321;SDS011;42227;6.376;-10.782;2022-07-04T09:36:39;8.98;;;3.70;;
56321;SDS011;42227;6.376;-10.782;2022-07-04T09:39:12;8.77;;;5.15;;
56321;SDS011;42227;6.376;-10.782;2022-07-04T09:44:47;6.85;;;4.57;;
56321;SDS011;42227;6.376;-10.782;2022-07-04T09:47:25;9.32;;;4.32;;
56321;SDS011;42227;6.376;-10.782;2022-07-04T09:52:31;9.30;;;4.70;;
56321;SDS011;42227;6.376;-10.782;2022-07-04T09:55:10;15.70;;;7.00;;
56321;SDS011;42227;6.376;-10.782;2022-07-04T09:57:43;7.97;;;4.88;;
56321;SDS011;42227;6.376;-10.782;2022-07-04T10:00:16;13.23;;;5.47;;
56321;SDS011;42227;6.376;-10.782;2022-07-04T10:02:45;14.93;;;5.88;;
56321;SDS011;42227;6.376;-10.782;2022-07-04T10:05:18;17.50;;;5.47;;
56321;SDS011;42227;6.376;-10.782;2022-07-04T10:07:55;10.93;;;4.93;;
56321;SDS011;42227;6.376;-10.782;2022-07-04T10:10:30;14.68;;;6.50;;
56321;SDS011;42227;6.376;-10.782;2022-07-04T10:13:01;11.13;;;6.97;;
56321;SDS011;42227;6.376;-10.782;2022-07-04T10:15:35;13.27;;;7.07;;
56321;SDS011;42227;6.376;-10.782;2022-07-04T10:18:08;17.15;;;7.60;;
56321;SDS011;42227;6.376;-10.782;2022-07-04T10:20:37;13.43;;;6.93;;
56321;SDS011;42227;6.376;-10.782;2022-07-04T10:23:05;7.97;;;5.53;;
56321;SDS011;42227;6.376;-10.782;2022-07-04T10:25:34;13.25;;;4.82;;
56321;SDS011;42227;6.376;-10.782;2022-07-04T10:28:03;7.53;;;5.13;;
56321;SDS011;42227;6.376;-10.782;2022-07-04T10:30:32;10.38;;;6.00;;
56321;SDS011;42227;6.376;-10.782;2022-07-04T10:33:10;9.20;;;4.47;;
56321;SDS011;42227;6.376;-10.782;2022-07-04T10:38:52;10.00;;;4.80;;
56321;SDS011;42227;6.376;-10.782;2022-07-04T10:41:22;13.13;;;5.28;;
56321;SDS011;42227;6.376;-10.782;2022-07-04T10:46:24;8.90;;;4.15;;
56321;SDS011;42227;6.376;-10.782;2022-07-04T10:49:07;13.05;;;5.43;;
56321;SDS011;42227;6.376;-10.782;2022-07-04T10:51:55;8.20;;;5.03;;
56321;SDS011;42227;6.376;-10.782;2022-07-04T10:54:37;8.75;;;5.00;;
56321;SDS011;42227;6.376;-10.782;2022-07-04T10:57:17;7.43;;;4.23;;
56321;SDS011;42227;6.376;-10.782;2022-07-04T11:02:25;9.60;;;5.30;;
56321;SDS011;42227;6.376;-10.782;2022-07-04T11:18:24;8.88;;;5.20;;
56321;SDS011;42227;6.376;-10.782;2022-07-04T11:20:54;8.13;;;5.68;;
56321;SDS011;42227;6.376;-10.782;2022-07-04T11:23:24;15.13;;;5.90;;
56321;SDS011;42227;6.376;-10.782;2022-07-04T11:25:53;9.02;;;5.05;;
56321;SDS011;42227;6.376;-10.782;2022-07-04T11:28:23;12.32;;;5.57;;
56321;SDS011;42227;6.376;-10.782;2022-07-04T11:31:10;16.33;;;6.25;;
56321;SDS011;42227;6.376;-10.782;2022-07-04T11:33:39;10.68;;;6.15;;
56321;SDS011;42227;6.376;-10.782;2022-07-04T11:36:10;8.18;;;5.03;;
56321;SDS011;42227;6.376;-10.782;2022-07-04T11:43:57;13.75;;;4.95;;
56321;SDS011;42227;6.376;-10.782;2022-07-04T11:46:25;14.27;;;5.20;;
56321;SDS011;42227;6.376;-10.782;2022-07-04T11:49:06;9.85;;;4.43;;
56321;SDS011;42227;6.376;-10.782;2022-07-04T11:51:41;8.60;;;4.90;;
56321;SDS011;42227;6.376;-10.782;2022-07-04T11:54:18;8.95;;;4.95;;
56321;SDS011;42227;6.376;-10.782;2022-07-04T11:57:14;11.68;;;4.10;;
56321;SDS011;42227;6.376;-10.782;2022-07-04T11:59:58;8.43;;;4.95;;
56321;SDS011;42227;6.376;-10.782;2022-07-04T12:02:30;6.07;;;4.57;;
56321;SDS011;42227;6.376;-10.782;2022-07-04T12:05:00;12.38;;;5.38;;
56321;SDS011;42227;6.376;-10.782;2022-07-04T12:07:31;7.63;;;5.28;;
56321;SDS011;42227;6.376;-10.782;2022-07-04T12:10:10;10.07;;;5.20;;
56321;SDS011;42227;6.376;-10.782;2022-07-04T12:12:56;10.48;;;5.25;;
56321;SDS011;42227;6.376;-10.782;2022-07-04T12:18:05;10.20;;;5.22;;
56321;SDS011;42227;6.376;-10.782;2022-07-04T12:20:47;13.05;;;5.18;;
56321;SDS011;42227;6.376;-10.782;2022-07-04T12:23:18;9.30;;;4.60;;
56321;SDS011;42227;6.376;-10.782;2022-07-04T12:25:48;13.10;;;5.63;;
56321;SDS011;42227;6.376;-10.782;2022-07-04T12:28:18;8.35;;;4.88;;
56321;SDS011;42227;6.376;-10.782;2022-07-04T12:33:20;9.50;;;6.07;;
56321;SDS011;42227;6.376;-10.782;2022-07-04T12:35:57;11.82;;;6.00;;
56321;SDS011;42227;6.376;-10.782;2022-07-04T12:48:39;23.83;;;7.10;;
56321;SDS011;42227;6.376;-10.782;2022-07-04T12:54:07;10.73;;;6.15;;
56321;SDS011;42227;6.376;-10.782;2022-07-04T12:59:11;20.33;;;5.72;;
56321;SDS011;42227;6.376;-10.782;2022-07-04T13:01:42;13.95;;;6.22;;
56321;SDS011;42227;6.376;-10.782;2022-07-04T13:04:11;6.95;;;4.28;;
56321;SDS011;42227;6.376;-10.782;2022-07-04T13:06:40;14.55;;;6.80;;
56321;SDS011;42227;6.376;-10.782;2022-07-04T13:09:08;18.05;;;7.03;;
56321;SDS011;42227;6.376;-10.782;2022-07-04T13:11:37;9.30;;;5.35;;
56321;SDS011;42227;6.376;-10.782;2022-07-04T13:14:05;12.18;;;6.05;;
56321;SDS011;42227;6.376;-10.782;2022-07-04T13:16:34;18.25;;;6.65;;
56321;SDS011;42227;6.376;-10.782;2022-07-04T13:19:06;10.57;;;5.85;;
56321;SDS011;42227;6.376;-10.782;2022-07-04T13:21:35;23.80;;;7.10;;
56321;SDS011;42227;6.376;-10.782;2022-07-04T13:24:04;10.30;;;4.93;;
56321;SDS011;42227;6.376;-10.782;2022-07-04T13:26:33;10.07;;;5.35;;
56321;SDS011;42227;6.376;-10.782;2022-07-04T13:29:01;15.40;;;8.20;;
56321;SDS011;42227;6.376;-10.782;2022-07-04T13:31:35;9.70;;;5.25;;
56321;SDS011;42227;6.376;-10.782;2022-07-04T13:34:04;9.38;;;5.05;;
56321;SDS011;42227;6.376;-10.782;2022-07-04T13:36:32;15.98;;;6.53;;
56321;SDS011;42227;6.376;-10.782;2022-07-04T13:39:00;12.48;;;5.90;;
56321;SDS011;42227;6.376;-10.782;2022-07-04T13:41:32;6.68;;;4.00;;
56321;SDS011;42227;6.376;-10.782;2022-07-04T13:44:02;11.73;;;6.00;;
56321;SDS011;42227;6.376;-10.782;2022-07-04T13:46:32;5.93;;;4.25;;
56321;SDS011;42227;6.376;-10.782;2022-07-04T13:49:03;14.80;;;4.50;;
56321;SDS011;42227;6.376;-10.782;2022-07-04T13:51:40;13.35;;;5.15;;
56321;SDS011;42227;6.376;-10.782;2022-07-04T13:54:09;8.30;;;4.20;;
56321;SDS011;42227;6.376;-10.782;2022-07-04T13:56:38;18.00;;;5.40;;
56321;SDS011;42227;6.376;-10.782;2022-07-04T13:59:07;10.73;;;6.05;;
56321;SDS011;42227;6.376;-10.782;2022-07-04T14:01:36;15.95;;;6.22;;
56321;SDS011;42227;6.376;-10.782;2022-07-04T14:04:05;11.57;;;6.13;;
56321;SDS011;42227;6.376;-10.782;2022-07-04T14:06:36;7.97;;;5.55;;
56321;SDS011;42227;6.376;-10.782;2022-07-04T14:09:04;15.77;;;7.07;;
56321;SDS011;42227;6.376;-10.782;2022-07-04T14:11:32;10.63;;;5.93;;
56321;SDS011;42227;6.376;-10.782;2022-07-04T14:14:00;11.32;;;5.25;;
56321;SDS011;42227;6.376;-10.782;2022-07-04T14:16:29;10.75;;;5.30;;
56321;SDS011;42227;6.376;-10.782;2022-07-04T14:18:57;12.27;;;5.07;;
56321;SDS011;42227;6.376;-10.782;2022-07-04T14:21:25;12.95;;;5.05;;
56321;SDS011;42227;6.376;-10.782;2022-07-04T14:23:54;10.73;;;4.95;;
56321;SDS011;42227;6.376;-10.782;2022-07-04T14:26:22;13.15;;;5.90;;
56321;SDS011;42227;6.376;-10.782;2022-07-04T14:28:51;7.38;;;4.93;;
56321;SDS011;42227;6.376;-10.782;2022-07-04T14:31:19;14.27;;;7.88;;
56321;SDS011;42227;6.376;-10.782;2022-07-04T14:33:48;14.13;;;6.00;;
56321;SDS011;42227;6.376;-10.782;2022-07-04T14:36:16;16.58;;;8.98;;
56321;SDS011;42227;6.376;-10.782;2022-07-04T14:38:44;11.05;;;5.70;;
56321;SDS011;42227;6.376;-10.782;2022-07-04T14:41:12;12.80;;;5.03;;
56321;SDS011;42227;6.376;-10.782;2022-07-04T14:43:41;10.40;;;5.93;;
56321;SDS011;42227;6.376;-10.782;2022-07-04T14:46:10;14.02;;;5.55;;
56321;SDS011;42227;6.376;-10.782;2022-07-04T14:48:39;10.05;;;4.55;;
56321;SDS011;42227;6.376;-10.782;2022-07-04T14:51:07;10.43;;;6.13;;
56321;SDS011;42227;6.376;-10.782;2022-07-04T14:53:35;19.45;;;7.57;;
56321;SDS011;42227;6.376;-10.782;2022-07-04T14:56:04;13.35;;;5.50;;
56321;SDS011;42227;6.376;-10.782;2022-07-04T14:58:33;6.65;;;4.68;;
56321;SDS011;42227;6.376;-10.782;2022-07-04T15:01:01;21.23;;;7.18;;
56321;SDS011;42227;6.376;-10.782;2022-07-04T15:03:29;12.48;;;5.40;;
56321;SDS011;42227;6.376;-10.782;2022-07-04T15:05:58;12.25;;;5.70;;
56321;SDS011;42227;6.376;-10.782;2022-07-04T15:08:26;7.30;;;4.68;;
56321;SDS011;42227;6.376;-10.782;2022-07-04T15:10:54;10.50;;;5.88;;
56321;SDS011;42227;6.376;-10.782;2022-07-04T15:13:26;11.85;;;6.70;;
56321;SDS011;42227;6.376;-10.782;2022-07-04T15:15:54;9.65;;;5.93;;
56321;SDS011;42227;6.376;-10.782;2022-07-04T15:18:43;12.68;;;5.78;;
56321;SDS011;42227;6.376;-10.782;2022-07-04T15:21:11;7.72;;;4.82;;
56321;SDS011;42227;6.376;-10.782;2022-07-04T15:23:39;10.88;;;6.38;;
56321;SDS011;42227;6.376;-10.782;2022-07-04T15:26:07;13.52;;;5.97;;
56321;SDS011;42227;6.376;-10.782;2022-07-04T15:28:38;12.35;;;5.93;;
56321;SDS011;42227;6.376;-10.782;2022-07-04T15:31:08;9.23;;;4.70;;
56321;SDS011;42227;6.376;-10.782;2022-07-04T15:33:39;20.92;;;6.68;;
56321;SDS011;42227;6.376;-10.782;2022-07-04T15:36:07;14.10;;;5.13;;